Time;durP1;ratioP1;P1;durP2;ratioP2;P2;SDS_P1;SDS_P2;PMS_P1;PMS_P2;Temp;Humidity;BMP_temperature;BMP_pressure;BME280_temperature;BME280_humidity;BME280_pressure;Samples;Min_cycle;Max_cycle;Signal;HPM_P1;HPM_P2
2022/12/19 00:01:16;;;;;;;38.40;17.30;;;;;;;-6.95;82.71;102359.10;98679;1288;1003711;-71
2022/12/19 00:03:43;;;;;;;33.70;16.40;;;;;;;-7.02;82.42;102353.38;100095;1296;107234;-71
2022/12/19 00:06:10;;;;;;;33.50;15.30;;;;;;;-7.07;82.56;102359.95;100028;1287;138212;-70
2022/12/19 00:08:37;;;;;;;37.40;16.50;;;;;;;-7.15;82.69;102363.13;99340;1288;1015739;-70
2022/12/19 00:11:04;;;;;;;34.30;16.50;;;;;;;-7.24;82.89;102356.80;100009;1288;139891;-70
2022/12/19 00:13:32;;;;;;;33.20;15.60;;;;;;;-7.31;83.04;102356.36;100213;1288;97044;-71
2022/12/19 00:16:13;;;;;;;30.60;14.70;;;;;;;-7.34;83.20;102347.72;100033;1281;138402;-70
2022/12/19 00:18:44;;;;;;;35.80;14.90;;;;;;;-7.33;83.23;102338.11;100180;1281;96381;-71
2022/12/19 00:21:14;;;;;;;37.10;16.60;;;;;;;-7.30;83.33;102329.86;100122;1281;109323;-70
2022/12/19 00:23:42;;;;;;;34.20;16.10;;;;;;;-7.25;83.48;102335.48;100097;1297;137647;-70
2022/12/19 00:26:19;;;;;;;35.70;17.00;;;;;;;-7.24;83.33;102339.09;100244;1282;98768;-70
2022/12/19 00:28:48;;;;;;;39.20;17.90;;;;;;;-7.24;83.23;102337.02;100044;1281;137622;-70
2022/12/19 00:31:17;;;;;;;37.00;18.10;;;;;;;-7.25;83.27;102340.88;100134;1279;96479;-71
2022/12/19 00:33:45;;;;;;;39.70;16.70;;;;;;;-7.27;83.13;102341.20;100220;1288;109003;-71
2022/12/19 00:36:15;;;;;;;38.30;16.80;;;;;;;-7.31;83.28;102347.25;99939;1304;138645;-71
2022/12/19 00:38:49;;;;;;;37.50;16.70;;;;;;;-7.29;83.26;102349.52;100195;1281;96464;-71
2022/12/19 00:41:20;;;;;;;36.20;17.00;;;;;;;-7.28;83.14;102351.46;100103;1287;138328;-71
2022/12/19 00:43:47;;;;;;;36.90;18.80;;;;;;;-7.26;83.17;102356.52;100181;1292;96522;-71
2022/12/19 00:46:15;;;;;;;38.80;17.30;;;;;;;-7.22;83.28;102354.23;100101;1288;138186;-71
2022/12/19 00:48:43;;;;;;;36.40;18.10;;;;;;;-7.18;83.32;102359.32;100074;1291;108764;-71
2022/12/19 00:51:14;;;;;;;35.00;16.80;;;;;;;-7.18;83.08;102364.73;100241;1288;97133;-71
2022/12/19 00:53:41;;;;;;;34.20;16.20;;;;;;;-7.23;82.89;102364.64;100110;1288;137583;-71
2022/12/19 00:56:11;;;;;;;36.50;17.10;;;;;;;-7.31;82.85;102375.63;100127;1288;96562;-71
2022/12/19 00:58:38;;;;;;;34.50;16.00;;;;;;;-7.39;82.96;102370.59;100205;1288;138446;-71
2022/12/19 01:01:16;;;;;;;40.90;17.00;;;;;;;-7.46;82.95;102358.42;100136;1289;107128;-71
2022/12/19 01:03:43;;;;;;;35.80;17.20;;;;;;;-7.48;83.26;102343.77;100164;1288;96473;-69
2022/12/19 01:06:30;;;;;;;39.10;17.00;;;;;;;-7.46;83.56;102347.16;100144;1288;105895;-71
2022/12/19 01:08:59;;;;;;;41.20;17.80;;;;;;;-7.45;83.48;102350.05;100109;1287;94937;-71
2022/12/19 01:14:07;;;;;;;35.50;16.90;;;;;;;-7.40;83.57;102350.42;100171;1288;106777;-71
2022/12/19 01:16:34;;;;;;;33.70;16.00;;;;;;;-7.39;83.56;102347.10;100073;1288;138767;-70
2022/12/19 01:19:01;;;;;;;34.60;16.40;;;;;;;-7.38;83.40;102348.68;100228;1279;108323;-71
2022/12/19 01:21:30;;;;;;;32.20;16.10;;;;;;;-7.39;83.38;102333.91;100213;1296;96547;-70
2022/12/19 01:23:58;;;;;;;31.90;14.80;;;;;;;-7.39;83.29;102332.42;100141;1282;138276;-70
2022/12/19 01:26:25;;;;;;;37.30;16.90;;;;;;;-7.39;83.39;102321.61;100095;1281;108152;-71
2022/12/19 01:28:52;;;;;;;36.30;16.80;;;;;;;-7.39;83.34;102319.10;100069;1285;138418;-70
2022/12/19 01:31:19;;;;;;;36.50;16.50;;;;;;;-7.38;83.32;102316.41;100196;1282;107892;-70
2022/12/19 01:33:46;;;;;;;40.20;17.10;;;;;;;-7.37;83.32;102325.14;100164;1288;96345;-70
2022/12/19 01:36:16;;;;;;;32.50;16.00;;;;;;;-7.37;83.15;102320.08;100081;1289;138192;-70
2022/12/19 01:38:43;;;;;;;39.70;17.10;;;;;;;-7.40;82.97;102322.19;100083;1280;107510;-70
2022/12/19 01:41:10;;;;;;;40.20;17.20;;;;;;;-7.45;82.75;102326.05;99992;1288;138712;-71
2022/12/19 01:43:58;;;;;;;36.70;17.70;;;;;;;-7.48;82.82;102321.80;100136;1294;108130;-70
2022/12/19 01:46:31;;;;;;;39.30;17.90;;;;;;;-7.50;82.75;102308.14;99237;1288;1003498;-71
2022/12/19 01:48:59;;;;;;;44.50;18.40;;;;;;;-7.51;82.86;102312.79;100178;1288;109703;-70
2022/12/19 01:51:32;;;;;;;51.30;20.60;;;;;;;-7.52;83.11;102307.98;100259;1288;109101;-70
2022/12/19 01:54:04;;;;;;;43.70;19.90;;;;;;;-7.53;83.33;102309.43;100160;1288;138112;-70
2022/12/19 01:56:36;;;;;;;47.70;20.00;;;;;;;-7.55;83.37;102311.23;100164;1279;108147;-70
2022/12/19 01:59:07;;;;;;;45.50;20.00;;;;;;;-7.59;83.25;102313.35;99942;1288;138933;-70
2022/12/19 02:01:38;;;;;;;43.90;18.00;;;;;;;-7.62;83.25;102311.61;100076;1281;108610;-70
2022/12/19 02:04:21;;;;;;;39.60;20.00;;;;;;;-7.62;83.33;102312.17;100052;1281;139092;-70
2022/12/19 02:06:49;;;;;;;43.70;20.90;;;;;;;-7.63;83.53;102322.18;100170;1289;96450;-70
2022/12/19 02:09:23;;;;;;;47.30;21.00;;;;;;;-7.68;83.23;102315.95;100363;1288;108190;-69
2022/12/19 02:11:52;;;;;;;52.10;22.60;;;;;;;-7.72;83.17;102318.30;99898;1288;137761;-71
2022/12/19 02:14:20;;;;;;;46.50;20.20;;;;;;;-7.80;83.52;102309.30;100165;1293;109289;-71
2022/12/19 02:16:55;;;;;;;47.80;20.50;;;;;;;-7.86;83.70;102303.97;100003;1285;138597;-71
2022/12/19 02:23:23;;;;;;;42.00;19.50;;;;;;;-7.86;83.45;102288.35;100044;1289;138217;-70
2022/12/19 02:26:10;;;;;;;41.30;19.00;;;;;;;-7.88;83.44;102292.30;100751;1288;96448;-71
2022/12/19 02:28:56;;;;;;;40.40;18.30;;;;;;;-7.93;83.44;102293.61;100052;1289;138122;-70
2022/12/19 02:31:29;;;;;;;41.90;18.40;;;;;;;-8.00;83.31;102302.02;100300;1281;107649;-71
2022/12/19 02:34:07;;;;;;;40.00;18.00;;;;;;;-8.07;83.44;102298.33;100862;1288;96336;-70
2022/12/19 02:36:42;;;;;;;41.10;18.80;;;;;;;-8.10;83.55;102297.55;99426;1281;1003453;-70
2022/12/19 02:39:18;;;;;;;35.20;17.00;;;;;;;-8.11;83.52;102291.25;100243;1287;96455;-70
2022/12/19 02:41:50;;;;;;;39.90;17.80;;;;;;;-8.08;83.35;102293.00;100281;1288;137926;-70
2022/12/19 02:44:24;;;;;;;37.50;18.40;;;;;;;-8.06;83.24;102297.57;100277;1288;109012;-70
2022/12/19 02:46:52;;;;;;;40.40;18.70;;;;;;;-8.08;82.94;102291.64;100321;1281;137669;-70
2022/12/19 02:49:21;;;;;;;40.90;19.70;;;;;;;-8.12;82.89;102282.70;100151;1285;107959;-70
2022/12/19 02:51:58;;;;;;;45.30;21.00;;;;;;;-8.17;82.97;102270.33;100219;1287;96497;-69
2022/12/19 02:54:25;;;;;;;40.70;18.80;;;;;;;-8.21;82.96;102272.30;100261;1281;138273;-69
2022/12/19 02:57:00;;;;;;;41.80;18.90;;;;;;;-8.22;82.90;102271.02;100192;1275;110966;-70
2022/12/19 02:59:46;;;;;;;38.60;18.30;;;;;;;-8.20;82.92;102269.50;99155;1287;1003141;-70
2022/12/19 03:02:25;;;;;;;42.50;18.00;;;;;;;-8.17;82.98;102269.48;100062;1281;107241;-69
2022/12/19 03:04:58;;;;;;;38.80;17.90;;;;;;;-8.17;82.88;102281.14;100088;1289;137663;-70
2022/12/19 03:07:35;;;;;;;38.40;18.00;;;;;;;-8.19;82.90;102276.42;100033;1288;109823;-70
2022/12/19 03:10:12;;;;;;;42.20;18.70;;;;;;;-8.23;82.92;102277.18;100090;1281;106968;-70
2022/12/19 03:12:48;;;;;;;43.00;19.00;;;;;;;-8.27;82.82;102270.75;99912;1291;97060;-69
2022/12/19 03:15:16;;;;;;;45.50;18.60;;;;;;;-8.29;82.87;102261.20;100253;1281;107561;-70
2022/12/19 03:17:43;;;;;;;41.30;18.40;;;;;;;-8.28;83.01;102257.38;100437;1289;139569;-70
2022/12/19 03:20:19;;;;;;;39.10;16.70;;;;;;;-8.28;82.90;102259.60;100226;1288;110395;-69
2022/12/19 03:22:47;;;;;;;39.60;18.20;;;;;;;-8.27;83.02;102257.60;100074;1282;138660;-69
2022/12/19 03:25:14;;;;;;;38.00;16.50;;;;;;;-8.27;83.05;102250.02;100249;1288;96356;-69
2022/12/19 03:27:44;;;;;;;40.60;17.60;;;;;;;-8.26;82.98;102248.97;100027;1279;278757;-69
2022/12/19 03:30:14;;;;;;;41.00;17.00;;;;;;;-8.23;82.94;102256.76;100071;1288;138326;-69
2022/12/19 03:32:46;;;;;;;40.70;17.70;;;;;;;-8.24;82.78;102261.80;100494;1288;109077;-69
2022/12/19 03:35:18;;;;;;;40.40;16.70;;;;;;;-8.23;82.89;102256.76;100491;1287;138217;-69
2022/12/19 03:37:47;;;;;;;44.30;17.40;;;;;;;-8.22;82.83;102256.02;100226;1279;96391;-71
2022/12/19 03:40:19;;;;;;;39.80;17.20;;;;;;;-8.23;82.91;102254.27;99948;1285;138982;-71
2022/12/19 03:45:35;;;;;;;;;;;;;;;-8.23;82.93;102252.92;100077;1289;110059;-70
2022/12/19 03:48:08;;;;;;;39.60;16.80;;;;;;;-8.22;82.70;102253.96;99916;1288;124524;-71
2022/12/19 03:50:45;;;;;;;43.10;18.30;;;;;;;-8.22;82.68;102246.92;100031;1279;96397;-71
2022/12/19 03:53:22;;;;;;;39.40;17.70;;;;;;;-8.21;82.80;102250.30;99915;1280;138025;-70
2022/12/19 03:55:54;;;;;;;44.10;18.10;;;;;;;-8.21;82.54;102246.11;101447;1288;95893;-71
2022/12/19 03:58:28;;;;;;;38.70;17.90;;;;;;;-8.19;82.57;102253.02;100015;1281;139632;-70
2022/12/19 04:00:56;;;;;;;42.90;19.20;;;;;;;-8.18;82.54;102243.47;100069;1287;108486;-70
2022/12/19 04:03:24;;;;;;;39.40;18.70;;;;;;;-8.17;82.37;102235.06;100134;1285;96562;-71
2022/12/19 04:05:53;;;;;;;38.50;17.80;;;;;;;-8.19;82.38;102233.56;99980;1281;138014;-71
2022/12/19 04:08:22;;;;;;;39.40;18.30;;;;;;;-8.21;82.50;102227.02;100260;1287;96637;-70
2022/12/19 04:10:54;;;;;;;43.20;18.10;;;;;;;-8.22;82.52;102222.39;100081;1289;139356;-71
2022/12/19 04:13:27;;;;;;;37.70;16.60;;;;;;;-8.22;82.50;102218.55;100112;1279;106718;-71
2022/12/19 04:16:03;;;;;;;41.20;17.30;;;;;;;-8.21;82.42;102207.98;99407;1282;1003700;-71
2022/12/19 04:18:33;;;;;;;35.90;17.80;;;;;;;-8.20;82.48;102210.38;100088;1281;107575;-71
2022/12/19 04:21:08;;;;;;;37.50;17.50;;;;;;;-8.22;82.36;102204.00;100114;1285;96498;-71
2022/12/19 04:23:40;;;;;;;40.90;17.30;;;;;;;-8.24;82.36;102201.02;100057;1288;138211;-71
2022/12/19 04:26:11;;;;;;;39.50;18.20;;;;;;;-8.26;82.42;102195.99;100033;1284;105761;-70
2022/12/19 04:28:43;;;;;;;37.00;17.30;;;;;;;-8.25;82.46;102189.14;100082;1283;138515;-71
2022/12/19 04:31:13;;;;;;;40.40;17.50;;;;;;;-8.26;82.44;102196.15;100114;1288;106126;-70
2022/12/19 04:33:40;;;;;;;40.50;16.80;;;;;;;-8.27;82.31;102184.73;100093;1280;96354;-71
2022/12/19 04:36:10;;;;;;;39.10;17.40;;;;;;;-8.30;82.29;102179.46;100003;1281;139674;-71
2022/12/19 04:38:37;;;;;;;37.30;17.40;;;;;;;-8.33;82.39;102182.45;100160;1289;107463;-71
2022/12/19 04:41:04;;;;;;;39.10;17.30;;;;;;;-8.35;82.49;102175.08;100113;1295;138162;-70
2022/12/19 04:43:31;;;;;;;39.90;17.70;;;;;;;-8.37;82.51;102171.52;100182;1281;108244;-71
2022/12/19 04:45:59;;;;;;;38.40;18.20;;;;;;;-8.39;82.40;102168.34;100120;1288;96362;-70
2022/12/19 04:48:26;;;;;;;43.30;18.80;;;;;;;-8.42;82.52;102169.33;100189;1281;138067;-69
2022/12/19 04:50:55;;;;;;;39.80;18.70;;;;;;;-8.45;82.47;102168.73;100305;1281;107631;-70
2022/12/19 04:53:22;;;;;;;36.70;17.90;;;;;;;-8.48;82.44;102165.78;100199;1281;138413;-69
2022/12/19 04:55:49;;;;;;;42.30;18.90;;;;;;;-8.53;82.42;102158.16;100291;1287;107033;-69
2022/12/19 04:58:16;;;;;;;38.30;18.00;;;;;;;-8.58;82.53;102159.83;100122;1281;138435;-69
2022/12/19 05:00:48;;;;;;;40.20;18.90;;;;;;;-8.63;82.35;102139.10;100276;1281;109851;-69
2022/12/19 05:03:15;;;;;;;46.60;19.30;;;;;;;-8.68;82.33;102152.55;100086;1281;107149;-70
2022/12/19 05:05:42;;;;;;;46.90;20.40;;;;;;;-8.72;82.32;102142.77;100025;1289;139596;-70
2022/12/19 05:08:10;;;;;;;39.60;17.20;;;;;;;-8.74;82.36;102143.48;100351;1282;106529;-69
2022/12/19 05:10:39;;;;;;;39.70;18.00;;;;;;;-8.78;82.41;102158.33;100247;1288;139727;-69
2022/12/19 05:13:08;;;;;;;39.20;18.60;;;;;;;-8.83;82.21;102147.62;100138;1281;109147;-70
2022/12/19 05:15:35;;;;;;;43.00;19.00;;;;;;;-8.89;82.23;102146.38;101588;1296;106777;-70
2022/12/19 05:18:02;;;;;;;40.00;18.20;;;;;;;-8.94;82.17;102171.27;101550;1289;138788;-70
2022/12/19 05:20:30;;;;;;;39.90;18.40;;;;;;;-8.99;82.10;102160.41;100240;1279;106536;-69
2022/12/19 05:22:57;;;;;;;43.40;18.90;;;;;;;-9.02;82.14;102154.95;100045;1288;139473;-70
2022/12/19 05:25:30;;;;;;;43.40;19.50;;;;;;;-9.05;82.25;102144.61;100244;1288;110587;-70
2022/12/19 05:27:57;;;;;;;45.90;19.40;;;;;;;-9.07;82.14;102158.80;100200;1281;108025;-70
2022/12/19 05:30:24;;;;;;;45.20;20.70;;;;;;;-9.10;82.10;102153.66;100099;1282;138140;-69
2022/12/19 05:32:52;;;;;;;42.00;18.80;;;;;;;-9.13;82.14;102146.86;100151;1280;108615;-69
2022/12/19 05:35:19;;;;;;;45.80;19.40;;;;;;;-9.15;82.20;102155.48;100651;1285;138660;-70
2022/12/19 05:37:46;;;;;;;44.80;20.80;;;;;;;-9.18;82.32;102151.26;100161;1281;109907;-69
2022/12/19 05:40:14;;;;;;;40.50;18.60;;;;;;;-9.19;82.28;102144.73;100006;1281;138859;-70
2022/12/19 05:42:42;;;;;;;40.10;19.30;;;;;;;-9.20;82.14;102141.63;100552;1281;97048;-69
2022/12/19 05:45:11;;;;;;;48.30;19.50;;;;;;;-9.21;82.16;102135.34;100180;1289;108119;-73
2022/12/19 05:47:38;;;;;;;47.00;18.80;;;;;;;-9.20;82.07;102138.23;99353;1288;1004979;-72
2022/12/19 05:50:07;;;;;;;43.90;18.90;;;;;;;-9.22;82.06;102129.14;100179;1281;110574;-74
2022/12/19 05:52:34;;;;;;;41.80;19.30;;;;;;;-9.24;81.96;102129.37;101192;1288;139437;-73
2022/12/19 05:55:01;;;;;;;41.50;19.90;;;;;;;-9.26;82.05;102132.09;100110;1289;96566;-74
2022/12/19 05:57:28;;;;;;;42.40;18.00;;;;;;;-9.27;82.07;102132.96;100147;1291;107648;-74
2022/12/19 05:59:55;;;;;;;43.40;18.40;;;;;;;-9.30;82.01;102140.69;100034;1282;138555;-74
2022/12/19 06:02:23;;;;;;;51.70;20.20;;;;;;;-9.32;82.11;102141.23;100033;1281;109767;-74
2022/12/19 06:04:50;;;;;;;47.10;19.20;;;;;;;-9.33;82.05;102135.42;100012;1287;138419;-74
2022/12/19 06:07:18;;;;;;;52.10;20.50;;;;;;;-9.32;82.11;102140.17;100092;1277;96940;-74
2022/12/19 06:09:47;;;;;;;46.50;19.30;;;;;;;-9.33;82.12;102145.52;100147;1287;107890;-74
2022/12/19 06:12:14;;;;;;;38.70;18.70;;;;;;;-9.34;81.89;102154.96;99942;1287;141314;-74
2022/12/19 06:14:41;;;;;;;42.20;19.80;;;;;;;-9.35;81.87;102149.84;100142;1281;110398;-75
2022/12/19 06:17:08;;;;;;;44.70;18.60;;;;;;;-9.37;81.89;102160.46;100031;1282;138701;-73
2022/12/19 06:19:36;;;;;;;41.60;18.30;;;;;;;-9.39;81.80;102157.48;100116;1288;96448;-81
2022/12/19 06:22:03;;;;;;;46.50;20.80;;;;;;;-9.40;81.71;102150.48;100211;1282;106655;-73
2022/12/19 06:24:30;;;;;;;45.50;20.20;;;;;;;-9.42;81.78;102152.22;100098;1281;138396;-73
2022/12/19 06:26:57;;;;;;;45.50;20.50;;;;;;;-9.42;81.94;102155.70;100143;1288;109482;-72
2022/12/19 06:29:24;;;;;;;47.30;20.50;;;;;;;-9.43;81.72;102159.00;100039;1291;138476;-75
2022/12/19 06:31:51;;;;;;;47.90;19.70;;;;;;;-9.43;81.74;102159.36;100186;1291;96504;-75
2022/12/19 06:34:19;;;;;;;43.30;19.10;;;;;;;-9.44;81.69;102152.39;100103;1289;138433;-75
2022/12/19 06:37:06;;;;;;;44.30;19.90;;;;;;;-9.46;81.55;102150.54;99464;1290;1002569;-74
2022/12/19 06:39:34;;;;;;;51.00;20.30;;;;;;;-9.48;81.56;102144.66;100169;1288;108946;-76
2022/12/19 06:44:58;;;;;;;41.60;20.70;;;;;;;-9.56;81.57;102140.83;99793;1294;96614;-77
2022/12/19 06:47:26;;;;;;;40.50;20.00;;;;;;;-9.61;81.63;102153.39;99664;1293;138097;-77
2022/12/19 06:49:53;;;;;;;43.00;21.30;;;;;;;-9.65;81.66;102136.59;99722;1294;97207;-74
2022/12/19 06:52:22;;;;;;;41.80;18.90;;;;;;;-9.68;81.83;102133.50;99664;1294;138329;-72
2022/12/19 06:54:49;;;;;;;49.10;20.60;;;;;;;-9.70;81.84;102142.38;98937;1297;1003269;-75
2022/12/19 06:57:18;;;;;;;44.20;19.10;;;;;;;-9.71;81.84;102154.95;99654;1285;96487;-73
2022/12/19 06:59:45;;;;;;;51.00;22.70;;;;;;;-9.70;81.91;102148.58;99543;1296;139383;-70
2022/12/19 07:02:26;;;;;;;46.50;19.50;;;;;;;-9.68;81.75;102140.02;99673;1291;96483;-70
2022/12/19 07:05:00;;;;;;;46.50;20.50;;;;;;;-9.66;81.55;102138.65;99626;1301;138387;-69
2022/12/19 07:07:29;;;;;;;47.00;20.90;;;;;;;-9.64;81.47;102146.20;99714;1295;108584;-69
2022/12/19 07:09:57;;;;;;;45.80;20.30;;;;;;;-9.63;81.53;102153.55;99591;1294;98271;-70
2022/12/19 07:12:26;;;;;;;50.50;21.10;;;;;;;-9.61;81.42;102150.52;99496;1294;138458;-69
2022/12/19 07:14:53;;;;;;;56.70;22.20;;;;;;;-9.54;81.44;102144.84;99743;1294;96589;-69
2022/12/19 07:17:22;;;;;;;47.70;20.10;;;;;;;-9.43;81.22;102137.48;99487;1294;139400;-71
2022/12/19 07:19:50;;;;;;;43.40;19.20;;;;;;;-9.34;80.71;102142.75;99781;1289;108263;-71
2022/12/19 07:22:18;;;;;;;49.20;20.40;;;;;;;-9.24;80.70;102148.23;100694;1280;1002535;-71
2022/12/19 07:24:45;;;;;;;47.80;21.00;;;;;;;-9.13;80.50;102137.63;101562;1289;106614;-71
2022/12/19 07:27:14;;;;;;;44.20;20.20;;;;;;;-8.97;80.21;102141.17;100354;1289;96549;-69
2022/12/19 07:29:41;;;;;;;46.70;21.10;;;;;;;-8.84;79.81;102138.30;99135;1287;1003422;-71
2022/12/19 07:32:08;;;;;;;44.30;21.30;;;;;;;-8.71;79.45;102130.17;100120;1281;106505;-69
2022/12/19 07:34:36;;;;;;;43.80;20.30;;;;;;;-8.65;79.03;102135.02;100036;1285;139723;-71
2022/12/19 07:37:03;;;;;;;42.80;19.30;;;;;;;-8.61;78.62;102133.34;100163;1281;108151;-69
2022/12/19 07:39:30;;;;;;;46.00;21.00;;;;;;;-8.59;78.13;102136.54;100214;1288;96481;-68
2022/12/19 07:41:58;;;;;;;44.20;20.60;;;;;;;-8.53;78.07;102131.04;100771;1294;139038;-70
2022/12/19 07:44:35;;;;;;;42.50;19.80;;;;;;;-8.41;77.92;102123.84;100504;1291;107525;-68
2022/12/19 07:47:02;;;;;;;43.20;20.60;;;;;;;-8.29;77.51;102124.55;100025;1289;97182;-69
2022/12/19 07:49:30;;;;;;;46.30;20.80;;;;;;;-8.16;77.10;102122.95;99998;1291;138025;-69
2022/12/19 07:51:57;;;;;;;44.60;21.10;;;;;;;-8.02;76.92;102119.23;100141;1289;97108;-68
2022/12/19 07:54:24;;;;;;;42.80;20.40;;;;;;;-7.93;75.93;102123.09;100606;1289;139734;-68
2022/12/19 07:56:52;;;;;;;41.70;19.90;;;;;;;-7.88;75.53;102126.16;100266;1291;107905;-69
2022/12/19 07:59:20;;;;;;;41.40;20.50;;;;;;;-7.79;75.50;102113.79;99972;1287;139034;-72
2022/12/19 08:01:55;;;;;;;43.30;20.50;;;;;;;-7.63;75.49;102110.20;101426;1296;107872;-71
2022/12/19 08:04:24;;;;;;;43.40;20.00;;;;;;;-7.50;75.19;102106.89;100052;1288;96580;-69
2022/12/19 08:06:51;;;;;;;42.60;21.20;;;;;;;-7.41;74.63;102109.06;100051;1289;139347;-69
2022/12/19 08:09:19;;;;;;;41.70;20.00;;;;;;;-7.31;73.80;102106.91;100010;1288;106023;-69
2022/12/19 08:11:46;;;;;;;40.20;19.20;;;;;;;-7.24;73.40;102109.38;100191;1287;138435;-69
2022/12/19 08:14:13;;;;;;;38.00;20.40;;;;;;;-7.18;73.28;102113.48;100690;1294;109817;-69
2022/12/19 08:16:41;;;;;;;40.90;19.40;;;;;;;-7.11;73.01;102114.88;100777;1288;95444;-69
2022/12/19 08:19:28;;;;;;;38.60;19.60;;;;;;;-7.03;72.57;102111.84;100024;1287;138406;-67
2022/12/19 08:21:55;;;;;;;42.60;20.50;;;;;;;-6.95;72.34;102112.58;100531;1294;105431;-69
2022/12/19 08:24:22;;;;;;;40.00;20.60;;;;;;;-6.92;71.40;102109.27;100018;1291;138509;-70
2022/12/19 08:26:50;;;;;;;42.50;20.80;;;;;;;-6.89;71.39;102106.71;100003;1282;107769;-71
2022/12/19 08:29:17;;;;;;;46.90;20.60;;;;;;;-6.84;71.81;102091.84;100048;1291;96468;-72
2022/12/19 08:31:44;;;;;;;40.30;20.10;;;;;;;-6.75;71.28;102104.00;100082;1281;109729;-71
2022/12/19 08:34:12;;;;;;;41.20;19.30;;;;;;;-6.66;71.11;102081.89;100106;1283;107098;-72
2022/12/19 08:36:40;;;;;;;41.20;21.00;;;;;;;-6.51;71.03;102081.00;99849;1298;138484;-69
2022/12/19 08:39:07;;;;;;;43.20;21.60;;;;;;;-6.39;70.65;102074.05;99942;1289;107491;-70
2022/12/19 08:41:35;;;;;;;38.20;20.80;;;;;;;-6.24;70.15;102067.06;99968;1290;139510;-71
2022/12/19 08:44:02;;;;;;;39.40;19.40;;;;;;;-6.12;69.84;102077.64;100120;1287;109642;-72
2022/12/19 08:46:30;;;;;;;42.70;20.10;;;;;;;-6.02;69.31;102074.73;100081;1287;107539;-72
2022/12/19 08:48:58;;;;;;;39.20;20.00;;;;;;;-5.95;68.70;102066.88;99907;1282;138630;-72
2022/12/19 08:51:26;;;;;;;38.00;19.70;;;;;;;-5.89;68.28;102067.04;99963;1292;109133;-72
2022/12/19 08:53:53;;;;;;;42.30;20.20;;;;;;;-5.84;67.92;102066.52;99906;1282;138226;-71
2022/12/19 08:56:22;;;;;;;41.50;19.40;;;;;;;-5.84;67.01;102052.11;100046;1291;108857;-71
2022/12/19 08:58:52;;;;;;;37.90;19.40;;;;;;;-5.79;67.12;102045.17;99993;1298;107562;-70
2022/12/19 09:01:24;;;;;;;41.90;19.50;;;;;;;-5.71;66.55;102039.88;99925;1296;140473;-69
2022/12/19 09:03:52;;;;;;;40.70;18.90;;;;;;;-5.66;66.55;102049.87;99967;1288;108226;-69
2022/12/19 09:06:40;;;;;;;40.50;20.00;;;;;;;-5.58;66.66;102034.46;100081;1289;138820;-70
2022/12/19 09:09:07;;;;;;;39.90;19.70;;;;;;;-5.45;66.89;102033.52;100081;1290;109906;-70
2022/12/19 09:11:34;;;;;;;38.70;19.70;;;;;;;-5.33;66.09;102043.91;99890;1289;138390;-79
2022/12/19 09:14:14;;;;;;;38.30;20.10;;;;;;;-5.33;65.04;102035.65;100033;1289;96945;-71
2022/12/19 09:16:47;;;;;;;40.60;20.40;;;;;;;-5.30;65.83;102025.60;100035;1296;107551;-70
2022/12/19 09:19:15;;;;;;;43.20;19.60;;;;;;;-5.27;65.68;102014.94;99981;1289;138150;-71
2022/12/19 09:21:42;;;;;;;39.70;19.80;;;;;;;-5.32;65.53;102012.47;99999;1289;109930;-71
2022/12/19 09:24:11;;;;;;;41.00;20.30;;;;;;;-5.39;64.29;102021.67;99839;1288;138008;-71
2022/12/19 09:26:40;;;;;;;38.60;20.40;;;;;;;-5.48;64.44;102007.09;100207;1288;96377;-70
2022/12/19 09:29:08;;;;;;;38.90;20.70;;;;;;;-5.55;64.18;102007.49;100003;1282;107779;-71
2022/12/19 09:31:48;;;;;;;42.20;20.30;;;;;;;-5.63;64.85;102000.06;100018;1298;96345;-70
2022/12/19 09:34:22;;;;;;;39.60;20.20;;;;;;;-5.63;65.04;102002.60;100054;1298;109900;-71
2022/12/19 09:37:04;;;;;;;38.90;19.40;;;;;;;-5.64;64.78;101988.31;99914;1294;139772;-73
2022/12/19 09:39:33;;;;;;;42.40;20.30;;;;;;;-5.56;65.41;101986.41;100024;1299;96489;-72
2022/12/19 09:42:17;;;;;;;39.80;20.10;;;;;;;-5.47;64.84;101971.05;99932;1287;138513;-72
2022/12/19 09:44:59;;;;;;;38.60;20.10;;;;;;;-5.32;65.02;101966.35;100080;1291;96355;-72
2022/12/19 09:47:29;;;;;;;39.80;19.50;;;;;;;-5.11;65.02;101958.41;99927;1298;138421;-72
2022/12/19 09:49:59;;;;;;;39.30;20.20;;;;;;;-4.95;64.14;101957.48;100096;1289;107603;-72
2022/12/19 09:52:32;;;;;;;39.70;19.90;;;;;;;-4.82;63.80;101942.11;100013;1289;96996;-71
2022/12/19 09:55:07;;;;;;;40.90;20.90;;;;;;;-4.70;63.67;101939.39;99961;1289;138888;-73
2022/12/19 09:57:40;;;;;;;39.20;18.90;;;;;;;-4.56;62.31;101946.11;100066;1290;96473;-69
2022/12/19 10:00:14;;;;;;;44.50;20.30;;;;;;;-4.45;62.93;101935.70;99960;1295;138547;-72
2022/12/19 10:02:47;;;;;;;38.70;19.20;;;;;;;-4.37;62.06;101935.13;100104;1295;106587;-70
2022/12/19 10:05:19;;;;;;;37.00;18.70;;;;;;;-4.27;62.31;101926.54;100039;1289;96489;-72
2022/12/19 10:08:17;;;;;;;35.60;19.50;;;;;;;-4.10;62.60;101915.20;100105;1294;108910;-71
2022/12/19 10:10:56;;;;;;;37.80;19.70;;;;;;;-3.96;62.54;101913.40;100128;1289;96491;-72
2022/12/19 10:13:59;;;;;;;38.10;19.40;;;;;;;-3.87;60.68;101920.85;99974;1294;137855;-73
2022/12/19 10:16:49;;;;;;;37.00;19.80;;;;;;;-3.96;59.97;101923.12;100088;1288;107583;-73
2022/12/19 10:19:45;;;;;;;38.60;19.80;;;;;;;-4.07;59.84;101913.68;100034;1294;138755;-73
2022/12/19 10:22:24;;;;;;;42.40;20.00;;;;;;;-4.15;59.67;101911.68;100139;1294;107409;-73
2022/12/19 10:25:10;;;;;;;38.80;20.80;;;;;;;-4.21;60.38;101893.86;99998;1294;138531;-73
2022/12/19 10:27:46;;;;;;;43.10;21.70;;;;;;;-4.23;60.04;101892.25;100120;1291;110407;-73
2022/12/19 10:30:27;;;;;;;38.90;19.80;;;;;;;-4.28;60.34;101887.05;100025;1288;138293;-72
2022/12/19 10:33:13;;;;;;;40.20;20.30;;;;;;;-4.24;60.57;101884.21;100150;1289;96571;-74
2022/12/19 10:35:52;;;;;;;38.50;19.50;;;;;;;-4.23;60.17;101888.51;100136;1290;138413;-74
2022/12/19 10:38:29;;;;;;;42.10;21.10;;;;;;;-4.25;59.62;101880.08;100119;1294;96471;-72
2022/12/19 10:41:12;;;;;;;43.00;20.30;;;;;;;-4.32;59.65;101876.00;100158;1294;109765;-74
2022/12/19 10:43:48;;;;;;;45.50;22.40;;;;;;;-4.33;59.81;101869.84;99992;1294;138753;-72
2022/12/19 10:46:21;;;;;;;40.10;19.30;;;;;;;-4.30;61.01;101851.98;100087;1296;96475;-72
2022/12/19 10:48:50;;;;;;;40.70;20.00;;;;;;;-4.22;60.91;101861.75;100019;1282;138155;-76
2022/12/19 10:51:25;;;;;;;40.10;20.50;;;;;;;-4.24;59.74;101861.45;100129;1297;96496;-84
2022/12/19 10:53:57;;;;;;;42.10;21.10;;;;;;;-4.29;59.70;101844.25;100012;1289;138184;-75
2022/12/19 10:56:27;;;;;;;41.20;19.70;;;;;;;-4.30;60.04;101844.73;100125;1291;106668;-72
2022/12/19 10:59:03;;;;;;;39.30;21.20;;;;;;;-4.37;59.26;101848.39;100365;1289;96482;-73
2022/12/19 11:01:38;;;;;;;38.70;19.60;;;;;;;-4.44;60.67;101844.59;99999;1281;138072;-72
2022/12/19 11:04:29;;;;;;;39.20;20.10;;;;;;;-4.45;60.72;101842.16;100000;1292;96963;-75
2022/12/19 11:07:17;;;;;;;42.90;20.20;;;;;;;-4.52;59.88;101840.09;99996;1294;138259;-73
2022/12/19 11:09:45;;;;;;;40.90;20.60;;;;;;;-4.60;59.61;101823.70;100013;1279;106675;-74
2022/12/19 11:12:34;;;;;;;42.40;21.10;;;;;;;-4.60;60.68;101814.89;99856;1289;138292;-75
2022/12/19 11:15:22;;;;;;;35.60;18.70;;;;;;;-4.61;60.04;101822.30;99254;1289;1002914;-73
2022/12/19 11:18:13;;;;;;;38.40;19.40;;;;;;;-4.72;59.98;101816.55;99916;1289;139083;-73
2022/12/19 11:21:03;;;;;;;36.50;18.80;;;;;;;-4.82;59.90;101835.23;99954;1289;109976;-73
2022/12/19 11:23:54;;;;;;;39.30;18.90;;;;;;;-4.88;60.62;101830.33;99091;1292;1002685;-73
2022/12/19 11:26:46;;;;;;;44.70;20.70;;;;;;;-4.89;60.81;101814.83;100027;1295;96474;-72
2022/12/19 11:29:45;;;;;;;39.30;19.10;;;;;;;-4.84;61.23;101799.66;99927;1291;138360;-73